sensor_id;sensor_type;location;lat;lon;timestamp;temperature;humidity
30399;DHT22;17195;50.838;7.214;2023-07-13T00:00:28;17.50;89.80
30399;DHT22;17195;50.838;7.214;2023-07-13T00:02:54;17.50;90.10
30399;DHT22;17195;50.838;7.214;2023-07-13T00:05:23;17.40;90.40
30399;DHT22;17195;50.838;7.214;2023-07-13T00:07:51;17.40;90.60
30399;DHT22;17195;50.838;7.214;2023-07-13T00:10:17;17.40;91.00
30399;DHT22;17195;50.838;7.214;2023-07-13T00:12:44;17.30;91.20
30399;DHT22;17195;50.838;7.214;2023-07-13T00:15:14;17.20;91.80
30399;DHT22;17195;50.838;7.214;2023-07-13T00:17:41;17.10;92.20
30399;DHT22;17195;50.838;7.214;2023-07-13T00:20:10;17.00;92.60
30399;DHT22;17195;50.838;7.214;2023-07-13T00:22:36;16.90;93.20
30399;DHT22;17195;50.838;7.214;2023-07-13T00:25:02;16.80;93.90
30399;DHT22;17195;50.838;7.214;2023-07-13T00:27:27;16.70;95.00
30399;DHT22;17195;50.838;7.214;2023-07-13T00:29:55;16.70;96.60
30399;DHT22;17195;50.838;7.214;2023-07-13T00:32:20;16.60;97.80
30399;DHT22;17195;50.838;7.214;2023-07-13T00:34:46;16.50;99.00
30399;DHT22;17195;50.838;7.214;2023-07-13T00:37:12;16.40;99.90
30399;DHT22;17195;50.838;7.214;2023-07-13T00:39:38;16.30;99.90
30399;DHT22;17195;50.838;7.214;2023-07-13T00:42:04;16.30;99.90
30399;DHT22;17195;50.838;7.214;2023-07-13T00:44:30;16.20;99.90
30399;DHT22;17195;50.838;7.214;2023-07-13T00:46:56;16.10;99.90
30399;DHT22;17195;50.838;7.214;2023-07-13T00:49:25;16.10;99.90
30399;DHT22;17195;50.838;7.214;2023-07-13T00:52:02;16.00;99.90
30399;DHT22;17195;50.838;7.214;2023-07-13T00:54:41;16.00;99.90
30399;DHT22;17195;50.838;7.214;2023-07-13T00:57:17;15.90;99.90
30399;DHT22;17195;50.838;7.214;2023-07-13T00:59:47;15.70;99.90
30399;DHT22;17195;50.838;7.214;2023-07-13T01:02:13;15.70;99.90
30399;DHT22;17195;50.838;7.214;2023-07-13T01:04:39;15.70;99.90
30399;DHT22;17195;50.838;7.214;2023-07-13T01:07:06;15.60;99.90
30399;DHT22;17195;50.838;7.214;2023-07-13T01:09:32;15.60;99.90
30399;DHT22;17195;50.838;7.214;2023-07-13T01:11:57;15.50;99.90
30399;DHT22;17195;50.838;7.214;2023-07-13T01:14:24;15.50;99.90
30399;DHT22;17195;50.838;7.214;2023-07-13T01:16:50;15.40;99.90
30399;DHT22;17195;50.838;7.214;2023-07-13T01:19:35;15.30;99.90
30399;DHT22;17195;50.838;7.214;2023-07-13T01:22:07;15.30;99.90
30399;DHT22;17195;50.838;7.214;2023-07-13T01:24:34;15.10;99.90
30399;DHT22;17195;50.838;7.214;2023-07-13T01:27:00;15.10;99.90
30399;DHT22;17195;50.838;7.214;2023-07-13T01:29:26;15.00;99.90
30399;DHT22;17195;50.838;7.214;2023-07-13T01:31:51;15.00;99.90
30399;DHT22;17195;50.838;7.214;2023-07-13T01:34:17;14.90;99.90
30399;DHT22;17195;50.838;7.214;2023-07-13T01:36:42;14.90;99.90
30399;DHT22;17195;50.838;7.214;2023-07-13T01:39:08;14.80;99.90
30399;DHT22;17195;50.838;7.214;2023-07-13T01:41:33;14.80;99.90
30399;DHT22;17195;50.838;7.214;2023-07-13T01:43:59;14.70;99.90
30399;DHT22;17195;50.838;7.214;2023-07-13T01:46:25;14.70;99.90
30399;DHT22;17195;50.838;7.214;2023-07-13T01:48:50;14.70;99.90
30399;DHT22;17195;50.838;7.214;2023-07-13T01:51:17;14.70;99.90
30399;DHT22;17195;50.838;7.214;2023-07-13T01:53:43;14.60;99.90
30399;DHT22;17195;50.838;7.214;2023-07-13T01:56:08;14.50;99.90
30399;DHT22;17195;50.838;7.214;2023-07-13T01:58:34;14.50;99.90
30399;DHT22;17195;50.838;7.214;2023-07-13T02:01:00;14.50;99.90
30399;DHT22;17195;50.838;7.214;2023-07-13T02:03:25;14.50;99.90
30399;DHT22;17195;50.838;7.214;2023-07-13T02:05:51;14.40;99.90
30399;DHT22;17195;50.838;7.214;2023-07-13T02:08:16;14.40;99.90
30399;DHT22;17195;50.838;7.214;2023-07-13T02:10:42;14.30;99.90
30399;DHT22;17195;50.838;7.214;2023-07-13T02:13:07;14.30;99.90
30399;DHT22;17195;50.838;7.214;2023-07-13T02:15:33;14.30;99.90
30399;DHT22;17195;50.838;7.214;2023-07-13T02:17:59;14.30;99.90
30399;DHT22;17195;50.838;7.214;2023-07-13T02:20:25;14.30;99.90
30399;DHT22;17195;50.838;7.214;2023-07-13T02:22:51;14.30;99.90
30399;DHT22;17195;50.838;7.214;2023-07-13T02:25:17;14.20;99.90
30399;DHT22;17195;50.838;7.214;2023-07-13T02:27:42;14.20;99.90
30399;DHT22;17195;50.838;7.214;2023-07-13T02:30:09;14.20;99.90
30399;DHT22;17195;50.838;7.214;2023-07-13T02:32:36;14.20;99.90
30399;DHT22;17195;50.838;7.214;2023-07-13T02:35:01;14.10;99.90
30399;DHT22;17195;50.838;7.214;2023-07-13T02:37:27;14.10;99.90
30399;DHT22;17195;50.838;7.214;2023-07-13T02:39:52;14.20;99.90
30399;DHT22;17195;50.838;7.214;2023-07-13T02:42:19;14.20;99.90
30399;DHT22;17195;50.838;7.214;2023-07-13T02:44:45;14.30;99.90
30399;DHT22;17195;50.838;7.214;2023-07-13T02:47:10;14.30;99.90
30399;DHT22;17195;50.838;7.214;2023-07-13T02:49:36;14.40;99.90
30399;DHT22;17195;50.838;7.214;2023-07-13T02:52:02;14.40;99.90
30399;DHT22;17195;50.838;7.214;2023-07-13T02:54:27;14.40;99.90
30399;DHT22;17195;50.838;7.214;2023-07-13T02:56:53;14.30;99.90
30399;DHT22;17195;50.838;7.214;2023-07-13T02:59:18;14.30;99.90
30399;DHT22;17195;50.838;7.214;2023-07-13T03:01:44;14.30;99.90
30399;DHT22;17195;50.838;7.214;2023-07-13T03:04:09;14.30;99.90
30399;DHT22;17195;50.838;7.214;2023-07-13T03:06:35;14.30;99.90
30399;DHT22;17195;50.838;7.214;2023-07-13T03:09:00;14.40;99.90
30399;DHT22;17195;50.838;7.214;2023-07-13T03:11:26;14.40;99.90
30399;DHT22;17195;50.838;7.214;2023-07-13T03:13:52;14.30;99.90
30399;DHT22;17195;50.838;7.214;2023-07-13T03:16:18;14.30;99.90
30399;DHT22;17195;50.838;7.214;2023-07-13T03:18:43;14.40;99.90
30399;DHT22;17195;50.838;7.214;2023-07-13T03:21:09;14.30;99.90
30399;DHT22;17195;50.838;7.214;2023-07-13T03:23:35;14.30;99.90
30399;DHT22;17195;50.838;7.214;2023-07-13T03:28:30;14.20;99.90
30399;DHT22;17195;50.838;7.214;2023-07-13T03:31:23;14.20;99.90
30399;DHT22;17195;50.838;7.214;2023-07-13T03:33:48;14.20;99.90
30399;DHT22;17195;50.838;7.214;2023-07-13T03:36:17;14.20;99.90
30399;DHT22;17195;50.838;7.214;2023-07-13T03:38:52;14.20;99.90
30399;DHT22;17195;50.838;7.214;2023-07-13T03:41:18;14.30;99.90
30399;DHT22;17195;50.838;7.214;2023-07-13T03:43:44;14.30;99.90
30399;DHT22;17195;50.838;7.214;2023-07-13T03:46:11;14.40;99.90
30399;DHT22;17195;50.838;7.214;2023-07-13T03:48:36;14.40;99.90
30399;DHT22;17195;50.838;7.214;2023-07-13T03:51:02;14.50;99.90
30399;DHT22;17195;50.838;7.214;2023-07-13T03:53:28;14.50;99.90
30399;DHT22;17195;50.838;7.214;2023-07-13T03:55:53;14.50;99.90
30399;DHT22;17195;50.838;7.214;2023-07-13T04:00:52;14.50;99.90
30399;DHT22;17195;50.838;7.214;2023-07-13T04:03:17;14.50;99.90
30399;DHT22;17195;50.838;7.214;2023-07-13T04:05:43;14.50;99.90
30399;DHT22;17195;50.838;7.214;2023-07-13T04:08:08;14.60;99.90
30399;DHT22;17195;50.838;7.214;2023-07-13T04:10:34;14.60;99.90
30399;DHT22;17195;50.838;7.214;2023-07-13T04:13:00;14.50;99.90
30399;DHT22;17195;50.838;7.214;2023-07-13T04:15:28;14.60;99.90
30399;DHT22;17195;50.838;7.214;2023-07-13T04:17:54;14.70;99.90
30399;DHT22;17195;50.838;7.214;2023-07-13T04:20:20;14.60;99.90
30399;DHT22;17195;50.838;7.214;2023-07-13T04:22:46;14.70;99.90
30399;DHT22;17195;50.838;7.214;2023-07-13T04:25:11;14.70;99.90
30399;DHT22;17195;50.838;7.214;2023-07-13T04:27:37;14.80;99.90
30399;DHT22;17195;50.838;7.214;2023-07-13T04:30:03;14.90;99.90
30399;DHT22;17195;50.838;7.214;2023-07-13T04:32:29;14.90;99.90
30399;DHT22;17195;50.838;7.214;2023-07-13T04:34:54;15.00;99.90
30399;DHT22;17195;50.838;7.214;2023-07-13T04:37:21;15.10;99.90
30399;DHT22;17195;50.838;7.214;2023-07-13T04:39:46;15.20;99.90
30399;DHT22;17195;50.838;7.214;2023-07-13T04:42:12;15.20;99.90
30399;DHT22;17195;50.838;7.214;2023-07-13T04:44:37;15.40;99.90
30399;DHT22;17195;50.838;7.214;2023-07-13T04:47:03;15.50;99.90
30399;DHT22;17195;50.838;7.214;2023-07-13T04:49:29;15.60;99.90
30399;DHT22;17195;50.838;7.214;2023-07-13T04:51:54;15.70;99.90
30399;DHT22;17195;50.838;7.214;2023-07-13T04:54:20;15.80;99.90
30399;DHT22;17195;50.838;7.214;2023-07-13T04:56:47;15.90;99.90
30399;DHT22;17195;50.838;7.214;2023-07-13T04:59:12;15.90;99.90
30399;DHT22;17195;50.838;7.214;2023-07-13T05:01:38;16.00;99.90
30399;DHT22;17195;50.838;7.214;2023-07-13T05:04:04;16.20;99.90
30399;DHT22;17195;50.838;7.214;2023-07-13T05:06:30;16.20;99.90
30399;DHT22;17195;50.838;7.214;2023-07-13T05:08:56;16.30;99.90
30399;DHT22;17195;50.838;7.214;2023-07-13T05:11:22;16.40;99.90
30399;DHT22;17195;50.838;7.214;2023-07-13T05:13:47;16.40;99.90
30399;DHT22;17195;50.838;7.214;2023-07-13T05:16:13;16.50;99.90
30399;DHT22;17195;50.838;7.214;2023-07-13T05:18:38;16.50;99.90
30399;DHT22;17195;50.838;7.214;2023-07-13T05:21:09;16.60;99.90
30399;DHT22;17195;50.838;7.214;2023-07-13T05:23:35;16.60;99.90
30399;DHT22;17195;50.838;7.214;2023-07-13T05:26:02;16.70;99.90
30399;DHT22;17195;50.838;7.214;2023-07-13T05:28:30;16.70;99.90
30399;DHT22;17195;50.838;7.214;2023-07-13T05:30:56;16.80;99.90
30399;DHT22;17195;50.838;7.214;2023-07-13T05:33:22;16.80;99.90
30399;DHT22;17195;50.838;7.214;2023-07-13T05:35:48;17.00;99.90
30399;DHT22;17195;50.838;7.214;2023-07-13T05:38:13;17.00;99.90
30399;DHT22;17195;50.838;7.214;2023-07-13T05:40:39;17.10;99.90
30399;DHT22;17195;50.838;7.214;2023-07-13T05:43:04;17.20;99.90
30399;DHT22;17195;50.838;7.214;2023-07-13T05:45:30;17.30;99.90
30399;DHT22;17195;50.838;7.214;2023-07-13T05:47:55;17.40;99.90
30399;DHT22;17195;50.838;7.214;2023-07-13T05:50:21;17.40;99.90
30399;DHT22;17195;50.838;7.214;2023-07-13T05:52:47;17.50;99.90
30399;DHT22;17195;50.838;7.214;2023-07-13T05:55:12;17.60;99.90
30399;DHT22;17195;50.838;7.214;2023-07-13T05:57:38;17.70;99.90
30399;DHT22;17195;50.838;7.214;2023-07-13T06:00:05;17.80;99.90
30399;DHT22;17195;50.838;7.214;2023-07-13T06:02:30;18.00;99.90
30399;DHT22;17195;50.838;7.214;2023-07-13T06:04:56;18.10;99.90
30399;DHT22;17195;50.838;7.214;2023-07-13T06:07:21;18.10;99.90
30399;DHT22;17195;50.838;7.214;2023-07-13T06:09:47;18.10;99.90
30399;DHT22;17195;50.838;7.214;2023-07-13T06:12:12;18.10;99.90
30399;DHT22;17195;50.838;7.214;2023-07-13T06:14:38;18.10;99.90
30399;DHT22;17195;50.838;7.214;2023-07-13T06:17:04;18.10;99.90
30399;DHT22;17195;50.838;7.214;2023-07-13T06:19:29;18.20;99.90
30399;DHT22;17195;50.838;7.214;2023-07-13T06:21:55;18.20;99.90
30399;DHT22;17195;50.838;7.214;2023-07-13T06:24:22;18.30;99.90
30399;DHT22;17195;50.838;7.214;2023-07-13T06:26:47;18.20;99.90
30399;DHT22;17195;50.838;7.214;2023-07-13T06:29:13;18.20;99.90
30399;DHT22;17195;50.838;7.214;2023-07-13T06:31:38;18.30;99.90
30399;DHT22;17195;50.838;7.214;2023-07-13T06:34:04;18.40;99.90
30399;DHT22;17195;50.838;7.214;2023-07-13T06:36:29;18.60;99.90
30399;DHT22;17195;50.838;7.214;2023-07-13T06:38:55;18.70;99.90
30399;DHT22;17195;50.838;7.214;2023-07-13T06:41:20;18.80;99.90
30399;DHT22;17195;50.838;7.214;2023-07-13T06:43:47;18.70;99.90
30399;DHT22;17195;50.838;7.214;2023-07-13T06:46:13;18.70;99.90
30399;DHT22;17195;50.838;7.214;2023-07-13T06:48:38;18.60;99.90
30399;DHT22;17195;50.838;7.214;2023-07-13T06:51:04;18.50;99.90
30399;DHT22;17195;50.838;7.214;2023-07-13T06:53:29;18.60;99.90
30399;DHT22;17195;50.838;7.214;2023-07-13T06:55:55;18.60;99.90
30399;DHT22;17195;50.838;7.214;2023-07-13T06:58:21;18.60;99.90
30399;DHT22;17195;50.838;7.214;2023-07-13T07:00:50;18.70;99.90
30399;DHT22;17195;50.838;7.214;2023-07-13T07:03:16;18.80;99.90
30399;DHT22;17195;50.838;7.214;2023-07-13T07:05:41;18.90;99.90
30399;DHT22;17195;50.838;7.214;2023-07-13T07:08:08;19.10;99.90
30399;DHT22;17195;50.838;7.214;2023-07-13T07:10:34;19.20;99.90
30399;DHT22;17195;50.838;7.214;2023-07-13T07:13:00;19.40;99.90
30399;DHT22;17195;50.838;7.214;2023-07-13T07:15:26;19.50;99.90
30399;DHT22;17195;50.838;7.214;2023-07-13T07:17:52;19.60;99.90
30399;DHT22;17195;50.838;7.214;2023-07-13T07:20:18;19.60;99.90
30399;DHT22;17195;50.838;7.214;2023-07-13T07:22:43;19.70;99.90
30399;DHT22;17195;50.838;7.214;2023-07-13T07:25:09;19.70;99.90
30399;DHT22;17195;50.838;7.214;2023-07-13T07:27:34;19.70;99.90
30399;DHT22;17195;50.838;7.214;2023-07-13T07:30:00;19.80;99.90
30399;DHT22;17195;50.838;7.214;2023-07-13T07:32:26;19.90;99.90
30399;DHT22;17195;50.838;7.214;2023-07-13T07:34:51;20.00;99.90
30399;DHT22;17195;50.838;7.214;2023-07-13T07:37:17;20.00;99.90
30399;DHT22;17195;50.838;7.214;2023-07-13T07:39:43;19.90;99.90
30399;DHT22;17195;50.838;7.214;2023-07-13T07:42:09;19.80;99.90
30399;DHT22;17195;50.838;7.214;2023-07-13T07:44:34;19.60;99.90
30399;DHT22;17195;50.838;7.214;2023-07-13T07:47:00;19.60;99.90
30399;DHT22;17195;50.838;7.214;2023-07-13T07:49:26;19.50;99.90
30399;DHT22;17195;50.838;7.214;2023-07-13T07:51:52;19.50;99.90
30399;DHT22;17195;50.838;7.214;2023-07-13T07:54:18;19.70;99.90
30399;DHT22;17195;50.838;7.214;2023-07-13T07:56:43;19.80;99.90
30399;DHT22;17195;50.838;7.214;2023-07-13T07:59:09;19.90;99.90
30399;DHT22;17195;50.838;7.214;2023-07-13T08:01:35;20.00;99.90
30399;DHT22;17195;50.838;7.214;2023-07-13T08:04:00;20.10;99.90
30399;DHT22;17195;50.838;7.214;2023-07-13T08:06:26;20.10;99.90
30399;DHT22;17195;50.838;7.214;2023-07-13T08:08:51;20.20;99.90
30399;DHT22;17195;50.838;7.214;2023-07-13T08:11:17;20.30;99.90
30399;DHT22;17195;50.838;7.214;2023-07-13T08:13:43;20.40;99.90
30399;DHT22;17195;50.838;7.214;2023-07-13T08:16:09;20.60;99.90
30399;DHT22;17195;50.838;7.214;2023-07-13T08:18:34;20.80;99.90
30399;DHT22;17195;50.838;7.214;2023-07-13T08:21:05;20.80;99.90
30399;DHT22;17195;50.838;7.214;2023-07-13T08:23:30;20.80;99.90
30399;DHT22;17195;50.838;7.214;2023-07-13T08:25:56;20.80;99.90
30399;DHT22;17195;50.838;7.214;2023-07-13T08:28:22;20.90;99.90
30399;DHT22;17195;50.838;7.214;2023-07-13T08:30:48;20.90;99.90
30399;DHT22;17195;50.838;7.214;2023-07-13T08:33:16;20.90;99.90
30399;DHT22;17195;50.838;7.214;2023-07-13T08:35:41;20.90;99.90
30399;DHT22;17195;50.838;7.214;2023-07-13T08:38:07;20.90;99.90
30399;DHT22;17195;50.838;7.214;2023-07-13T08:40:33;20.90;99.90
30399;DHT22;17195;50.838;7.214;2023-07-13T08:43:00;21.00;99.90
30399;DHT22;17195;50.838;7.214;2023-07-13T08:45:47;21.20;99.90
30399;DHT22;17195;50.838;7.214;2023-07-13T08:48:31;21.40;99.90
30399;DHT22;17195;50.838;7.214;2023-07-13T08:51:20;21.70;99.90
30399;DHT22;17195;50.838;7.214;2023-07-13T08:53:49;21.40;99.90
30399;DHT22;17195;50.838;7.214;2023-07-13T08:56:22;21.60;99.90
30399;DHT22;17195;50.838;7.214;2023-07-13T08:58:53;21.80;99.90
30399;DHT22;17195;50.838;7.214;2023-07-13T09:04:23;22.00;99.90
30399;DHT22;17195;50.838;7.214;2023-07-13T09:09:26;22.10;99.90
30399;DHT22;17195;50.838;7.214;2023-07-13T09:12:12;22.30;99.90
30399;DHT22;17195;50.838;7.214;2023-07-13T09:14:49;22.40;99.90
30399;DHT22;17195;50.838;7.214;2023-07-13T09:17:22;22.40;99.90
30399;DHT22;17195;50.838;7.214;2023-07-13T09:22:38;22.80;99.90
30399;DHT22;17195;50.838;7.214;2023-07-13T09:25:29;23.00;99.90
30399;DHT22;17195;50.838;7.214;2023-07-13T09:28:00;22.80;99.90
30399;DHT22;17195;50.838;7.214;2023-07-13T09:33:12;22.80;99.90
30399;DHT22;17195;50.838;7.214;2023-07-13T09:35:37;22.80;99.90
30399;DHT22;17195;50.838;7.214;2023-07-13T09:38:12;22.70;99.90
30399;DHT22;17195;50.838;7.214;2023-07-13T09:40:52;22.50;99.90
30399;DHT22;17195;50.838;7.214;2023-07-13T09:43:21;22.50;99.90
30399;DHT22;17195;50.838;7.214;2023-07-13T09:45:47;22.60;99.90
30399;DHT22;17195;50.838;7.214;2023-07-13T09:48:15;22.80;99.90
30399;DHT22;17195;50.838;7.214;2023-07-13T09:50:42;22.80;99.90
30399;DHT22;17195;50.838;7.214;2023-07-13T09:53:30;23.00;99.90
30399;DHT22;17195;50.838;7.214;2023-07-13T09:55:56;23.10;99.90
30399;DHT22;17195;50.838;7.214;2023-07-13T09:58:26;23.30;99.90
30399;DHT22;17195;50.838;7.214;2023-07-13T10:01:00;23.50;99.90
30399;DHT22;17195;50.838;7.214;2023-07-13T10:03:29;23.70;99.80
30399;DHT22;17195;50.838;7.214;2023-07-13T10:06:03;23.60;99.60
30399;DHT22;17195;50.838;7.214;2023-07-13T10:08:30;23.90;99.60
30399;DHT22;17195;50.838;7.214;2023-07-13T10:11:00;24.10;98.70
30399;DHT22;17195;50.838;7.214;2023-07-13T10:13:35;24.30;98.40
30399;DHT22;17195;50.838;7.214;2023-07-13T10:16:03;24.50;97.40
30399;DHT22;17195;50.838;7.214;2023-07-13T10:21:16;24.70;97.00
30399;DHT22;17195;50.838;7.214;2023-07-13T10:23:45;24.90;96.20
30399;DHT22;17195;50.838;7.214;2023-07-13T10:26:21;24.80;97.00
30399;DHT22;17195;50.838;7.214;2023-07-13T10:28:52;24.80;96.20
30399;DHT22;17195;50.838;7.214;2023-07-13T10:31:19;25.00;95.70
30399;DHT22;17195;50.838;7.214;2023-07-13T10:33:45;24.70;95.50
30399;DHT22;17195;50.838;7.214;2023-07-13T10:38:38;24.60;95.80
30399;DHT22;17195;50.838;7.214;2023-07-13T10:41:07;24.60;95.60
30399;DHT22;17195;50.838;7.214;2023-07-13T10:43:39;24.80;95.20
30399;DHT22;17195;50.838;7.214;2023-07-13T10:46:09;25.00;95.20
30399;DHT22;17195;50.838;7.214;2023-07-13T10:48:36;25.00;95.20
30399;DHT22;17195;50.838;7.214;2023-07-13T10:51:04;24.80;94.80
30399;DHT22;17195;50.838;7.214;2023-07-13T10:53:36;25.00;94.30
30399;DHT22;17195;50.838;7.214;2023-07-13T10:56:04;24.90;94.10
30399;DHT22;17195;50.838;7.214;2023-07-13T10:58:43;25.10;94.30
30399;DHT22;17195;50.838;7.214;2023-07-13T11:01:10;25.30;93.70
30399;DHT22;17195;50.838;7.214;2023-07-13T11:03:46;25.50;92.50
30399;DHT22;17195;50.838;7.214;2023-07-13T11:08:58;24.60;92.90
30399;DHT22;17195;50.838;7.214;2023-07-13T11:18:51;25.40;91.40
30399;DHT22;17195;50.838;7.214;2023-07-13T11:23:51;25.30;90.90
30399;DHT22;17195;50.838;7.214;2023-07-13T11:29:38;25.00;88.50
30399;DHT22;17195;50.838;7.214;2023-07-13T11:32:26;24.70;89.30
30399;DHT22;17195;50.838;7.214;2023-07-13T11:34:55;24.70;89.20
30399;DHT22;17195;50.838;7.214;2023-07-13T11:37:21;24.90;89.00
30399;DHT22;17195;50.838;7.214;2023-07-13T11:39:49;25.30;89.10
30399;DHT22;17195;50.838;7.214;2023-07-13T11:42:18;25.50;89.00
30399;DHT22;17195;50.838;7.214;2023-07-13T11:44:47;25.50;87.10
30399;DHT22;17195;50.838;7.214;2023-07-13T11:47:21;25.20;85.50
30399;DHT22;17195;50.838;7.214;2023-07-13T11:49:53;25.40;86.80
30399;DHT22;17195;50.838;7.214;2023-07-13T11:52:35;25.50;85.70
30399;DHT22;17195;50.838;7.214;2023-07-13T11:55:04;25.50;84.70
30399;DHT22;17195;50.838;7.214;2023-07-13T11:57:45;25.20;84.80
30399;DHT22;17195;50.838;7.214;2023-07-13T12:00:13;25.10;85.30
30399;DHT22;17195;50.838;7.214;2023-07-13T12:02:43;25.10;86.00
30399;DHT22;17195;50.838;7.214;2023-07-13T12:05:17;24.80;85.60
30399;DHT22;17195;50.838;7.214;2023-07-13T12:07:49;24.90;86.50
30399;DHT22;17195;50.838;7.214;2023-07-13T12:10:19;24.80;87.10
30399;DHT22;17195;50.838;7.214;2023-07-13T12:12:48;24.80;87.60
30399;DHT22;17195;50.838;7.214;2023-07-13T12:15:14;24.70;87.70
30399;DHT22;17195;50.838;7.214;2023-07-13T12:17:41;24.70;87.40
30399;DHT22;17195;50.838;7.214;2023-07-13T12:20:26;24.50;87.70
30399;DHT22;17195;50.838;7.214;2023-07-13T12:22:52;24.60;87.90
30399;DHT22;17195;50.838;7.214;2023-07-13T12:25:19;24.60;88.20
30399;DHT22;17195;50.838;7.214;2023-07-13T12:27:49;24.80;88.10
30399;DHT22;17195;50.838;7.214;2023-07-13T12:30:37;24.80;87.30
30399;DHT22;17195;50.838;7.214;2023-07-13T12:33:08;24.80;87.90
30399;DHT22;17195;50.838;7.214;2023-07-13T12:35:46;24.40;87.20
30399;DHT22;17195;50.838;7.214;2023-07-13T12:38:12;24.40;88.50
30399;DHT22;17195;50.838;7.214;2023-07-13T12:40:39;24.30;88.50
30399;DHT22;17195;50.838;7.214;2023-07-13T12:43:11;24.10;87.70
30399;DHT22;17195;50.838;7.214;2023-07-13T12:45:37;24.10;89.60
30399;DHT22;17195;50.838;7.214;2023-07-13T12:48:16;23.90;86.20
30399;DHT22;17195;50.838;7.214;2023-07-13T12:50:46;24.00;87.80
30399;DHT22;17195;50.838;7.214;2023-07-13T12:53:16;24.00;87.50
30399;DHT22;17195;50.838;7.214;2023-07-13T12:55:49;24.20;87.20
30399;DHT22;17195;50.838;7.214;2023-07-13T12:58:27;24.50;86.50
30399;DHT22;17195;50.838;7.214;2023-07-13T13:00:55;24.60;86.00
30399;DHT22;17195;50.838;7.214;2023-07-13T13:03:37;24.90;85.70
30399;DHT22;17195;50.838;7.214;2023-07-13T13:06:06;25.20;84.30
30399;DHT22;17195;50.838;7.214;2023-07-13T13:08:36;25.30;82.40
30399;DHT22;17195;50.838;7.214;2023-07-13T13:11:02;25.20;83.10
30399;DHT22;17195;50.838;7.214;2023-07-13T13:13:28;25.20;79.60
30399;DHT22;17195;50.838;7.214;2023-07-13T13:15:54;25.20;79.80
30399;DHT22;17195;50.838;7.214;2023-07-13T13:18:21;25.10;78.80
30399;DHT22;17195;50.838;7.214;2023-07-13T13:20:48;24.90;78.70
30399;DHT22;17195;50.838;7.214;2023-07-13T13:23:16;25.00;79.60
30399;DHT22;17195;50.838;7.214;2023-07-13T13:25:46;25.20;78.20
30399;DHT22;17195;50.838;7.214;2023-07-13T13:28:14;25.40;79.00
30399;DHT22;17195;50.838;7.214;2023-07-13T13:30:42;25.40;77.10
30399;DHT22;17195;50.838;7.214;2023-07-13T13:33:11;25.40;77.10
30399;DHT22;17195;50.838;7.214;2023-07-13T13:35:37;25.60;77.20
30399;DHT22;17195;50.838;7.214;2023-07-13T13:38:13;25.90;74.70
30399;DHT22;17195;50.838;7.214;2023-07-13T13:40:43;26.20;75.10
30399;DHT22;17195;50.838;7.214;2023-07-13T13:43:24;26.40;74.30
30399;DHT22;17195;50.838;7.214;2023-07-13T13:45:57;26.40;71.50
30399;DHT22;17195;50.838;7.214;2023-07-13T13:48:33;26.40;72.20
30399;DHT22;17195;50.838;7.214;2023-07-13T13:51:00;26.60;71.20
30399;DHT22;17195;50.838;7.214;2023-07-13T13:53:26;26.70;70.50
30399;DHT22;17195;50.838;7.214;2023-07-13T13:55:52;26.50;71.30
30399;DHT22;17195;50.838;7.214;2023-07-13T13:58:19;26.80;72.40
30399;DHT22;17195;50.838;7.214;2023-07-13T14:00:45;26.90;72.50
30399;DHT22;17195;50.838;7.214;2023-07-13T14:03:18;26.90;70.30
30399;DHT22;17195;50.838;7.214;2023-07-13T14:05:45;26.70;70.80
30399;DHT22;17195;50.838;7.214;2023-07-13T14:08:17;26.50;71.50
30399;DHT22;17195;50.838;7.214;2023-07-13T14:10:45;26.30;71.20
30399;DHT22;17195;50.838;7.214;2023-07-13T14:13:36;26.50;71.80
30399;DHT22;17195;50.838;7.214;2023-07-13T14:16:04;26.70;72.10
30399;DHT22;17195;50.838;7.214;2023-07-13T14:18:30;26.80;70.60
30399;DHT22;17195;50.838;7.214;2023-07-13T14:20:56;26.90;70.90
30399;DHT22;17195;50.838;7.214;2023-07-13T14:23:21;27.20;70.90
30399;DHT22;17195;50.838;7.214;2023-07-13T14:25:47;27.50;71.20
30399;DHT22;17195;50.838;7.214;2023-07-13T14:28:26;27.60;68.70
30399;DHT22;17195;50.838;7.214;2023-07-13T14:30:53;27.60;69.10
30399;DHT22;17195;50.838;7.214;2023-07-13T14:33:20;27.40;69.20
30399;DHT22;17195;50.838;7.214;2023-07-13T14:35:45;27.50;69.70
30399;DHT22;17195;50.838;7.214;2023-07-13T14:38:14;27.70;68.70
30399;DHT22;17195;50.838;7.214;2023-07-13T14:40:41;27.50;68.50
30399;DHT22;17195;50.838;7.214;2023-07-13T14:43:13;27.60;67.80
30399;DHT22;17195;50.838;7.214;2023-07-13T14:45:42;27.70;66.80
30399;DHT22;17195;50.838;7.214;2023-07-13T14:48:26;27.60;66.80
30399;DHT22;17195;50.838;7.214;2023-07-13T14:50:55;27.60;65.50
30399;DHT22;17195;50.838;7.214;2023-07-13T14:53:22;28.10;64.70
30399;DHT22;17195;50.838;7.214;2023-07-13T14:55:48;28.60;63.90
30399;DHT22;17195;50.838;7.214;2023-07-13T14:58:13;28.70;64.10
30399;DHT22;17195;50.838;7.214;2023-07-13T15:00:39;29.30;60.10
30399;DHT22;17195;50.838;7.214;2023-07-13T15:03:06;29.10;60.80
30399;DHT22;17195;50.838;7.214;2023-07-13T15:05:37;29.10;60.60
30399;DHT22;17195;50.838;7.214;2023-07-13T15:08:05;28.70;62.50
30399;DHT22;17195;50.838;7.214;2023-07-13T15:10:32;28.90;62.20
30399;DHT22;17195;50.838;7.214;2023-07-13T15:13:00;29.20;60.90
30399;DHT22;17195;50.838;7.214;2023-07-13T15:15:31;29.40;60.30
30399;DHT22;17195;50.838;7.214;2023-07-13T15:17:59;29.30;59.20
30399;DHT22;17195;50.838;7.214;2023-07-13T15:20:28;29.60;57.90
30399;DHT22;17195;50.838;7.214;2023-07-13T15:22:55;30.60;56.50
30399;DHT22;17195;50.838;7.214;2023-07-13T15:25:24;32.40;55.00
30399;DHT22;17195;50.838;7.214;2023-07-13T15:27:51;34.70;50.80
30399;DHT22;17195;50.838;7.214;2023-07-13T15:30:16;34.20;49.50
30399;DHT22;17195;50.838;7.214;2023-07-13T15:32:46;32.90;50.20
30399;DHT22;17195;50.838;7.214;2023-07-13T15:35:17;31.50;50.90
30399;DHT22;17195;50.838;7.214;2023-07-13T15:37:43;30.60;53.20
30399;DHT22;17195;50.838;7.214;2023-07-13T15:40:10;30.60;53.70
30399;DHT22;17195;50.838;7.214;2023-07-13T15:42:37;31.70;53.40
30399;DHT22;17195;50.838;7.214;2023-07-13T15:45:04;33.00;51.30
30399;DHT22;17195;50.838;7.214;2023-07-13T15:47:31;34.30;49.40
30399;DHT22;17195;50.838;7.214;2023-07-13T15:49:57;34.80;48.90
30399;DHT22;17195;50.838;7.214;2023-07-13T15:52:24;36.30;46.50
30399;DHT22;17195;50.838;7.214;2023-07-13T15:54:50;37.30;44.20
30399;DHT22;17195;50.838;7.214;2023-07-13T15:57:16;38.90;41.10
30399;DHT22;17195;50.838;7.214;2023-07-13T15:59:43;39.70;38.70
30399;DHT22;17195;50.838;7.214;2023-07-13T16:02:16;40.30;37.20
30399;DHT22;17195;50.838;7.214;2023-07-13T16:04:43;41.20;35.10
30399;DHT22;17195;50.838;7.214;2023-07-13T16:07:10;40.70;34.00
30399;DHT22;17195;50.838;7.214;2023-07-13T16:09:37;40.50;33.80
30399;DHT22;17195;50.838;7.214;2023-07-13T16:12:12;40.70;33.10